Rechercher aéroport 
image banner adimage banner adimage banner ad
image banner ad

5CA0 - Dreamworks Helistop Glendale

Situé à Glendale, United States

ICAO - 5CA0, IATA -

Données fournies par Airmate  

Information générale

Coordonnées: N34°9'30" W118°17'9"
Élévation : 513 feet MSL.
Variation magnétique : 14° East
Voir autres Aéroports à California

Données opérationnelles

Special qualification required
Heure actuelle UTC:
Heure actuelle locale:
Météo à : KBUR - Bob Hope ( 8 km )
METAR: KBUR 300053Z 17007KT 10SM CLR 31/10 A2983 RMK AO2 SLP087 T03110100 $
TAF: KBUR 292348Z 3000/3024 17009KT P6SM SKC FM300200 13006KT P6SM SKC FM300800 VRB03KT P6SM SKC FM301700 16005KT P6SM SKC FM302100 18009KT P6SM SKC
Voir NOTAMs / SUP AIP / TFR affectant cet aéroport [VIEW]
Fréquences de communication: [VIEW]

Pistes:

Coordonnées de l'aéroport

Adresse: Glendale United States

Vue satellite de 5CA0